createdAt,value
2023-09-06T00:00:47.046Z,101577.41
2023-09-06T00:03:15.150Z,101584.13
2023-09-06T00:05:42.955Z,101581.47
2023-09-06T00:08:11.229Z,101583.94
2023-09-06T00:10:39.584Z,101586.44
2023-09-06T00:13:10.914Z,101585.63
2023-09-06T00:15:38.019Z,101588.19
2023-09-06T00:18:09.577Z,101577.75
2023-09-06T00:20:37.926Z,101583.94
2023-09-06T00:23:13.548Z,101584.81
2023-09-06T00:25:40.121Z,101580.38
2023-09-06T00:28:10.415Z,101576.75
2023-09-06T00:30:37.082Z,101579.31
2023-09-06T00:33:10.332Z,101570.59
2023-09-06T00:35:39.257Z,101577.38
2023-09-06T00:38:08.678Z,101576.47
2023-09-06T00:40:41.211Z,101579.75
2023-09-06T00:43:09.337Z,101575.38
2023-09-06T00:45:45.191Z,101579.59
2023-09-06T00:48:23.802Z,101588.31
2023-09-06T00:50:52.999Z,101585.72
2023-09-06T00:53:22.194Z,101579.75
2023-09-06T00:55:50.013Z,101580.66
2023-09-06T00:58:18.937Z,101586.56
2023-09-06T01:00:47.147Z,101586.34
2023-09-06T01:03:14.560Z,101593.06
2023-09-06T01:05:50.820Z,101592.13
2023-09-06T01:08:34.870Z,101587.75
2023-09-06T01:11:23.342Z,101579.91
2023-09-06T01:13:59.844Z,101592.81
2023-09-06T01:16:27.952Z,101592.63
2023-09-06T01:18:54.768Z,101595.91
2023-09-06T01:21:26.494Z,101592.25
2023-09-06T01:23:54.401Z,101593.81
2023-09-06T01:26:21.264Z,101591.84
2023-09-06T01:28:50.524Z,101583.59
2023-09-06T01:31:17.958Z,101601.44
2023-09-06T01:33:44.730Z,101598.63
2023-09-06T01:36:11.336Z,101598.63
2023-09-06T01:38:37.915Z,101595.19
2023-09-06T01:41:04.762Z,101604.75
2023-09-06T01:43:32.505Z,101597.00
2023-09-06T01:45:59.314Z,101595.03
2023-09-06T01:48:26.155Z,101597.53
2023-09-06T01:50:54.897Z,101601.03
2023-09-06T01:53:23.626Z,101594.09
2023-09-06T01:55:51.568Z,101589.50
2023-09-06T01:58:18.416Z,101596.47
2023-09-06T02:00:46.591Z,101596.41
2023-09-06T02:03:17.001Z,101595.47
2023-09-06T02:05:45.058Z,101598.00
2023-09-06T02:08:12.491Z,101591.97
2023-09-06T02:10:39.078Z,101594.53
2023-09-06T02:13:05.663Z,101598.88
2023-09-06T02:15:32.408Z,101584.84
2023-09-06T02:17:59.205Z,101598.03
2023-09-06T02:20:26.672Z,101596.31
2023-09-06T02:22:58.616Z,101603.94
2023-09-06T02:25:30.119Z,101597.94
2023-09-06T02:27:58.159Z,101607.38
2023-09-06T02:30:24.970Z,101599.66
2023-09-06T02:32:53.120Z,101598.88
2023-09-06T02:35:20.260Z,101598.00
2023-09-06T02:37:46.989Z,101594.34
2023-09-06T02:40:14.828Z,101600.44
2023-09-06T02:42:42.160Z,101602.97
2023-09-06T02:45:12.328Z,101608.81
2023-09-06T02:47:49.127Z,101603.50
2023-09-06T02:50:19.740Z,101596.25
2023-09-06T02:52:46.598Z,101599.63
2023-09-06T02:55:14.409Z,101600.34
2023-09-06T02:57:44.847Z,101606.34
2023-09-06T03:00:26.368Z,101596.78
2023-09-06T03:03:00.525Z,101606.94
2023-09-06T03:05:28.361Z,101612.06
2023-09-06T03:07:56.169Z,101614.69
2023-09-06T03:10:24.321Z,101605.97
2023-09-06T03:12:55.630Z,101603.59
2023-09-06T03:15:24.055Z,101610.34
2023-09-06T03:17:54.518Z,101610.34
2023-09-06T03:20:42.176Z,101598.03
2023-09-06T03:23:18.241Z,101611.03
2023-09-06T03:25:48.409Z,101601.56
2023-09-06T03:28:16.145Z,101600.66
2023-09-06T03:30:43.573Z,101597.03
2023-09-06T03:33:10.672Z,101604.72
2023-09-06T03:35:37.994Z,101603.91
2023-09-06T03:38:09.572Z,101602.16
2023-09-06T03:40:36.710Z,101605.53
2023-09-06T03:43:15.831Z,101607.91
2023-09-06T03:45:45.235Z,101602.53
2023-09-06T03:48:14.124Z,101608.41
2023-09-06T03:50:41.198Z,101601.41
2023-09-06T03:53:07.956Z,101610.09
2023-09-06T03:55:37.992Z,101602.16
2023-09-06T03:58:08.245Z,101609.50
2023-09-06T04:00:35.994Z,101619.25
2023-09-06T04:03:05.146Z,101605.94
2023-09-06T04:05:33.488Z,101612.50
2023-09-06T04:08:05.174Z,101620.00
2023-09-06T04:10:39.589Z,101620.97
2023-09-06T04:13:10.874Z,101621.03
2023-09-06T04:15:38.601Z,101621.81
2023-09-06T04:18:11.793Z,101622.66
2023-09-06T04:20:40.434Z,101613.91
2023-09-06T04:23:09.167Z,101617.34
2023-09-06T04:25:43.496Z,101630.72
2023-09-06T04:28:14.528Z,101630.31
2023-09-06T04:30:42.297Z,101630.81
2023-09-06T04:33:16.236Z,101628.00
2023-09-06T04:35:45.129Z,101632.63
2023-09-06T04:38:13.705Z,101634.19
2023-09-06T04:40:40.327Z,101633.22
2023-09-06T04:43:08.559Z,101636.56
2023-09-06T04:45:38.603Z,101630.56
2023-09-06T04:48:12.411Z,101634.84
2023-09-06T04:50:41.434Z,101640.03
2023-09-06T04:53:09.475Z,101636.53
2023-09-06T04:55:37.168Z,101633.03
2023-09-06T04:58:04.661Z,101639.94
2023-09-06T05:00:37.692Z,101646.13
2023-09-06T05:03:09.644Z,101640.38
2023-09-06T05:05:36.887Z,101640.50
2023-09-06T05:08:04.398Z,101638.09
2023-09-06T05:10:31.714Z,101648.66
2023-09-06T05:12:58.764Z,101652.38
2023-09-06T05:15:25.549Z,101654.34
2023-09-06T05:17:52.134Z,101655.50
2023-09-06T05:20:26.437Z,101650.72
2023-09-06T05:22:53.694Z,101652.78
2023-09-06T05:25:20.428Z,101654.06
2023-09-06T05:27:46.933Z,101656.97
2023-09-06T05:30:15.540Z,101656.47
2023-09-06T05:32:43.507Z,101659.44
2023-09-06T05:35:10.211Z,101658.03
2023-09-06T05:37:37.256Z,101659.31
2023-09-06T05:40:06.276Z,101654.56
2023-09-06T05:42:32.857Z,101664.69
2023-09-06T05:44:59.472Z,101654.22
2023-09-06T05:47:26.236Z,101653.03
2023-09-06T05:49:56.797Z,101665.03
2023-09-06T05:52:23.740Z,101669.09
2023-09-06T05:54:51.463Z,101666.97
2023-09-06T05:57:20.265Z,101665.56
2023-09-06T05:59:47.045Z,101672.59
2023-09-06T06:02:18.667Z,101672.31
2023-09-06T06:04:48.162Z,101675.66
2023-09-06T06:07:15.144Z,101677.13
2023-09-06T06:09:41.982Z,101679.50
2023-09-06T06:12:09.433Z,101684.47
2023-09-06T06:14:37.771Z,101691.41
2023-09-06T06:17:06.604Z,101697.50
2023-09-06T06:19:34.232Z,101692.63
2023-09-06T06:22:02.742Z,101692.63
2023-09-06T06:24:34.668Z,101689.44
2023-09-06T06:27:01.591Z,101691.41
2023-09-06T06:29:28.359Z,101689.09
2023-09-06T06:31:55.396Z,101688.44
2023-09-06T06:34:22.305Z,101690.19
2023-09-06T06:36:49.025Z,101699.16
2023-09-06T06:39:15.747Z,101683.72
2023-09-06T06:41:43.418Z,101699.78
2023-09-06T06:44:10.488Z,101702.59
2023-09-06T06:46:39.960Z,101698.47
2023-09-06T06:49:08.353Z,101704.72
2023-09-06T06:51:39.474Z,101712.63
2023-09-06T06:54:15.260Z,101701.59
2023-09-06T06:56:42.138Z,101713.94
2023-09-06T06:59:10.029Z,101705.53
2023-09-06T07:01:37.427Z,101716.91
2023-09-06T07:04:05.714Z,101711.03
2023-09-06T07:06:33.368Z,101702.56
2023-09-06T07:09:04.418Z,101714.13
2023-09-06T07:11:34.546Z,101720.41
2023-09-06T07:14:01.469Z,101718.16
2023-09-06T07:16:31.575Z,101732.59
2023-09-06T07:18:59.514Z,101728.03
2023-09-06T07:21:27.349Z,101724.47
2023-09-06T07:23:54.098Z,101729.22
2023-09-06T07:26:20.966Z,101723.81
2023-09-06T07:28:48.189Z,101719.03
2023-09-06T07:31:16.015Z,101730.66
2023-09-06T07:33:43.733Z,101727.63
2023-09-06T07:36:12.137Z,101724.47
2023-09-06T07:38:39.009Z,101717.72
2023-09-06T07:41:08.333Z,101721.56
2023-09-06T07:43:36.009Z,101728.81
2023-09-06T07:46:03.670Z,101727.41
2023-09-06T07:48:32.181Z,101723.41
2023-09-06T07:51:00.352Z,101722.81
2023-09-06T07:53:27.411Z,101718.78
2023-09-06T07:55:54.789Z,101723.38
2023-09-06T07:58:22.076Z,101729.81
2023-09-06T08:00:56.331Z,101731.75
2023-09-06T08:03:27.393Z,101740.63
2023-09-06T08:05:55.772Z,101729.66
2023-09-06T08:08:22.687Z,101727.22
2023-09-06T08:10:49.785Z,101735.22
2023-09-06T08:13:16.610Z,101742.41
2023-09-06T08:15:43.415Z,101736.63
2023-09-06T08:18:10.352Z,101734.25
2023-09-06T08:20:37.264Z,101738.03
2023-09-06T08:23:05.187Z,101734.84
2023-09-06T08:25:34.757Z,101726.50
2023-09-06T08:28:01.568Z,101734.59
2023-09-06T08:30:28.715Z,101723.53
2023-09-06T08:32:57.077Z,101735.81
2023-09-06T08:35:24.810Z,101716.09
2023-09-06T08:37:51.658Z,101721.50
2023-09-06T08:40:19.815Z,101735.53
2023-09-06T08:42:46.651Z,101731.41
2023-09-06T08:45:14.196Z,101733.38
2023-09-06T08:47:41.025Z,101737.13
2023-09-06T08:50:11.833Z,101731.28
2023-09-06T08:56:37.643Z,101675.06
2023-09-06T08:59:06.803Z,101733.97
2023-09-06T09:01:35.851Z,101731.28
2023-09-06T09:04:03.148Z,101722.56
2023-09-06T09:06:30.565Z,101737.22
2023-09-06T09:09:13.757Z,101725.06
2023-09-06T09:14:48.865Z,101707.78
2023-09-06T09:17:22.541Z,101724.31
2023-09-06T09:19:53.649Z,101741.66
2023-09-06T09:22:25.392Z,101729.56
2023-09-06T09:24:59.708Z,101734.78
2023-09-06T09:27:28.629Z,101733.88
2023-09-06T09:30:01.085Z,101727.72
2023-09-06T09:32:27.982Z,101731.88
2023-09-06T09:34:55.608Z,101728.97
2023-09-06T09:37:23.758Z,101726.03
2023-09-06T09:39:50.860Z,101710.28
2023-09-06T09:42:17.686Z,101727.50
2023-09-06T09:45:00.017Z,101714.09
2023-09-06T09:50:06.058Z,101724.63
2023-09-06T09:52:34.109Z,101729.47
2023-09-06T09:55:03.567Z,101714.06
2023-09-06T09:57:30.947Z,101718.81
2023-09-06T09:59:59.143Z,101712.66
2023-09-06T10:02:38.957Z,101713.38
2023-09-06T10:05:13.387Z,101712.91
2023-09-06T10:07:49.636Z,101706.38
2023-09-06T10:10:18.868Z,101718.81
2023-09-06T10:12:48.677Z,101709.38
2023-09-06T10:15:16.028Z,101712.56
2023-09-06T10:17:43.586Z,101711.31
2023-09-06T10:20:13.842Z,101716.19
2023-09-06T10:22:47.342Z,101719.16
2023-09-06T10:25:19.693Z,101720.94
2023-09-06T10:27:51.346Z,101719.84
2023-09-06T10:30:29.901Z,101706.84
2023-09-06T10:32:56.798Z,101712.13
2023-09-06T10:35:27.082Z,101714.25
2023-09-06T10:38:08.557Z,101713.78
2023-09-06T10:40:50.746Z,101706.25
2023-09-06T10:43:18.816Z,101704.81
2023-09-06T10:45:59.535Z,101713.41
2023-09-06T10:48:26.458Z,101704.38
2023-09-06T10:51:09.712Z,101699.25
2023-09-06T10:53:37.280Z,101707.69
2023-09-06T10:56:06.420Z,101708.16
2023-09-06T10:58:38.094Z,101700.63
2023-09-06T11:01:14.115Z,101702.31
2023-09-06T11:03:42.606Z,101699.41
2023-09-06T11:06:10.592Z,101702.63
2023-09-06T11:08:39.976Z,101696.25
2023-09-06T11:11:10.153Z,101701.09
2023-09-06T11:13:38.740Z,101705.63
2023-09-06T11:16:11.496Z,101704.88
2023-09-06T11:18:48.970Z,101709.91
2023-09-06T11:21:24.279Z,101707.50
2023-09-06T11:23:53.087Z,101702.53
2023-09-06T11:26:20.580Z,101695.97
2023-09-06T11:28:48.701Z,101701.06
2023-09-06T11:31:24.940Z,101697.63
2023-09-06T11:33:59.492Z,101702.44
2023-09-06T11:36:33.292Z,101694.81
2023-09-06T11:39:13.115Z,101699.22
2023-09-06T11:41:41.408Z,101689.44
2023-09-06T11:44:11.157Z,101695.84
2023-09-06T11:46:39.807Z,101684.78
2023-09-06T11:49:07.902Z,101695.34
2023-09-06T11:51:34.856Z,101696.34
2023-09-06T11:54:02.265Z,101691.16
2023-09-06T11:56:34.558Z,101688.50
2023-09-06T11:59:02.359Z,101698.97
2023-09-06T12:01:29.934Z,101704.94
2023-09-06T12:04:04.074Z,101694.31
2023-09-06T12:06:30.908Z,101698.56
2023-09-06T12:08:57.743Z,101695.94
2023-09-06T12:11:26.050Z,101697.69
2023-09-06T12:13:52.916Z,101696.84
2023-09-06T12:16:21.117Z,101702.75
2023-09-06T12:18:48.178Z,101695.16
2023-09-06T12:21:16.336Z,101686.88
2023-09-06T12:23:43.502Z,101693.50
2023-09-06T12:26:10.266Z,101681.06
2023-09-06T12:28:36.982Z,101679.03
2023-09-06T12:31:07.810Z,101683.53
2023-09-06T12:33:39.377Z,101678.69
2023-09-06T12:36:07.861Z,101675.94
2023-09-06T12:38:34.891Z,101676.41
2023-09-06T12:41:01.944Z,101662.81
2023-09-06T12:43:30.449Z,101661.63
2023-09-06T12:45:58.550Z,101668.16
2023-09-06T12:48:26.833Z,101667.53
2023-09-06T12:50:57.263Z,101665.03
2023-09-06T12:53:25.131Z,101664.44
2023-09-06T12:55:51.969Z,101664.97
2023-09-06T12:58:18.991Z,101657.41
2023-09-06T13:00:45.969Z,101660.09
2023-09-06T13:03:12.894Z,101666.16
2023-09-06T13:05:43.387Z,101663.53
2023-09-06T13:08:10.796Z,101651.38
2023-09-06T13:10:37.610Z,101667.09
2023-09-06T13:13:04.476Z,101661.19
2023-09-06T13:15:32.578Z,101650.16
2023-09-06T13:17:59.320Z,101656.41
2023-09-06T13:20:26.053Z,101655.56
2023-09-06T13:22:52.788Z,101652.09
2023-09-06T13:25:19.744Z,101658.13
2023-09-06T13:27:47.752Z,101658.94
2023-09-06T13:30:15.184Z,101658.06
2023-09-06T13:32:41.988Z,101662.47
2023-09-06T13:35:09.084Z,101660.69
2023-09-06T13:37:35.933Z,101660.78
2023-09-06T13:40:03.236Z,101666.09
2023-09-06T13:42:30.119Z,101631.50
2023-09-06T13:44:57.522Z,101648.03
2023-09-06T13:47:24.406Z,101642.84
2023-09-06T13:49:51.883Z,101637.66
2023-09-06T13:52:18.986Z,101647.22
2023-09-06T13:54:45.958Z,101648.16
2023-09-06T13:57:12.730Z,101640.31
2023-09-06T13:59:40.221Z,101643.84
2023-09-06T14:02:07.190Z,101627.41
2023-09-06T14:04:35.732Z,101644.75
2023-09-06T14:07:02.969Z,101643.06
2023-09-06T14:09:29.838Z,101643.97
2023-09-06T14:11:56.764Z,101637.00
2023-09-06T14:14:24.679Z,101646.59
2023-09-06T14:16:52.072Z,101644.84
2023-09-06T14:19:18.830Z,101643.13
2023-09-06T14:21:48.479Z,101637.88
2023-09-06T14:24:16.235Z,101641.41
2023-09-06T14:26:46.281Z,101630.19
2023-09-06T14:29:13.787Z,101637.09
2023-09-06T14:31:41.339Z,101623.19
2023-09-06T14:34:08.702Z,101620.59
2023-09-06T14:36:35.784Z,101635.34
2023-09-06T14:39:05.025Z,101628.34
2023-09-06T14:41:34.041Z,101627.44
2023-09-06T14:44:00.996Z,101623.97
2023-09-06T14:46:27.853Z,101628.28
2023-09-06T14:48:54.709Z,101626.66
2023-09-06T14:51:21.590Z,101626.66
2023-09-06T14:53:48.349Z,101627.50
2023-09-06T14:56:16.401Z,101629.28
2023-09-06T14:58:46.953Z,101613.66
2023-09-06T15:01:13.693Z,101619.72
2023-09-06T15:03:40.635Z,101617.97
2023-09-06T15:06:08.716Z,101623.19
2023-09-06T15:08:35.858Z,101611.88
2023-09-06T15:11:03.046Z,101618.03
2023-09-06T15:13:29.822Z,101616.34
2023-09-06T15:15:56.745Z,101620.75
2023-09-06T15:18:24.494Z,101613.06
2023-09-06T15:20:52.244Z,101620.97
2023-09-06T15:23:19.326Z,101619.22
2023-09-06T15:25:46.326Z,101612.22
2023-09-06T15:28:13.327Z,101620.91
2023-09-06T15:30:40.410Z,101614.81
2023-09-06T15:33:07.456Z,101612.25
2023-09-06T15:35:34.391Z,101615.69
2023-09-06T15:38:07.765Z,101625.28
2023-09-06T15:40:34.757Z,101621.88
2023-09-06T15:43:03.053Z,101619.25
2023-09-06T15:45:29.837Z,101611.47
2023-09-06T15:47:59.977Z,101611.47
2023-09-06T15:50:29.355Z,101614.97
2023-09-06T15:52:56.576Z,101607.19
2023-09-06T15:55:23.760Z,101616.00
2023-09-06T15:57:51.186Z,101609.94
2023-09-06T16:00:30.763Z,101611.75
2023-09-06T16:02:59.376Z,101607.41
2023-09-06T16:05:26.621Z,101613.56
2023-09-06T16:07:54.571Z,101617.88
2023-09-06T16:10:21.503Z,101617.00
2023-09-06T16:12:49.732Z,101610.13
2023-09-06T16:15:17.679Z,101624.88
2023-09-06T16:17:46.142Z,101616.19
2023-09-06T16:20:13.648Z,101616.25
2023-09-06T16:22:40.476Z,101623.25
2023-09-06T16:25:08.960Z,101621.56
2023-09-06T16:27:36.226Z,101627.75
2023-09-06T16:30:08.787Z,101626.91
2023-09-06T16:32:35.746Z,101633.06
2023-09-06T16:35:08.411Z,101633.22
2023-09-06T16:37:39.435Z,101642.88
2023-09-06T16:40:11.476Z,101641.25
2023-09-06T16:42:44.878Z,101642.16
2023-09-06T16:45:20.584Z,101636.19
2023-09-06T16:47:50.629Z,101633.66
2023-09-06T16:50:18.537Z,101637.13
2023-09-06T16:52:46.287Z,101638.97
2023-09-06T16:55:13.322Z,101639.88
2023-09-06T16:57:40.292Z,101639.94
2023-09-06T17:00:09.176Z,101639.16
2023-09-06T17:02:36.353Z,101635.75
2023-09-06T17:05:05.662Z,101640.09
2023-09-06T17:08:20.430Z,101649.72
2023-09-06T17:10:47.170Z,101629.84
2023-09-06T17:13:14.126Z,101651.53
2023-09-06T17:15:40.958Z,101646.38
2023-09-06T17:18:08.167Z,101656.81
2023-09-06T17:20:36.264Z,101651.56
2023-09-06T17:23:03.067Z,101652.47
2023-09-06T17:25:31.529Z,101658.56
2023-09-06T17:27:58.317Z,101655.97
2023-09-06T17:30:25.661Z,101660.31
2023-09-06T17:33:15.537Z,101651.63
2023-09-06T17:35:44.486Z,101660.28
2023-09-06T17:38:14.056Z,101659.41
2023-09-06T17:40:46.218Z,101657.69
2023-09-06T17:43:14.500Z,101664.56
2023-09-06T17:45:41.895Z,101668.91
2023-09-06T17:48:26.567Z,101661.09
2023-09-06T17:50:55.432Z,101664.56
2023-09-06T17:53:26.566Z,101668.84
2023-09-06T17:56:03.211Z,101662.72
2023-09-06T17:58:35.824Z,101663.56
2023-09-06T18:01:07.920Z,101673.06
2023-09-06T18:03:39.315Z,101670.44
2023-09-06T18:06:12.712Z,101669.56
2023-09-06T18:08:40.765Z,101672.94
2023-09-06T18:11:10.386Z,101668.59
2023-09-06T18:13:40.475Z,101682.41
2023-09-06T18:16:08.117Z,101686.72
2023-09-06T18:18:35.090Z,101678.88
2023-09-06T18:21:06.487Z,101681.44
2023-09-06T18:23:34.241Z,101685.69
2023-09-06T18:26:01.384Z,101685.63
2023-09-06T18:28:28.733Z,101692.50
2023-09-06T18:30:55.907Z,101687.22
2023-09-06T18:33:25.736Z,101688.94
2023-09-06T18:35:54.169Z,101688.81
2023-09-06T18:38:22.214Z,101692.25
2023-09-06T18:40:50.342Z,101687.00
2023-09-06T18:43:18.563Z,101691.31
2023-09-06T18:45:46.491Z,101693.88
2023-09-06T18:48:18.074Z,101687.75
2023-09-06T18:50:48.326Z,101692.94
2023-09-06T18:53:15.046Z,101687.69
2023-09-06T18:55:44.386Z,101692.78
2023-09-06T18:58:11.938Z,101697.06
2023-09-06T19:00:40.377Z,101701.34
2023-09-06T19:03:07.853Z,101690.84
2023-09-06T19:05:35.528Z,101701.22
2023-09-06T19:08:02.327Z,101710.63
2023-09-06T19:10:28.925Z,101709.69
2023-09-06T19:12:55.731Z,101706.19
2023-09-06T19:15:23.152Z,101688.72
2023-09-06T19:17:50.818Z,101712.94
2023-09-06T19:20:19.556Z,101712.91
2023-09-06T19:22:47.749Z,101701.59
2023-09-06T19:25:14.521Z,101712.75
2023-09-06T19:27:41.728Z,101710.91
2023-09-06T19:30:09.632Z,101715.97
2023-09-06T19:32:38.152Z,101723.69
2023-09-06T19:35:04.895Z,101724.50
2023-09-06T19:37:31.465Z,101719.22
2023-09-06T19:39:58.801Z,101725.16
2023-09-06T19:42:25.358Z,101717.28
2023-09-06T19:44:53.340Z,101712.81
2023-09-06T19:47:20.812Z,101718.81
2023-09-06T19:49:48.825Z,101721.38
2023-09-06T19:52:17.601Z,101712.66
2023-09-06T19:54:44.386Z,101703.03
2023-09-06T19:57:11.110Z,101712.50
2023-09-06T19:59:38.496Z,101722.75
2023-09-06T20:02:05.381Z,101717.50
2023-09-06T20:04:32.443Z,101702.59
2023-09-06T20:06:59.717Z,101716.44
2023-09-06T20:09:29.191Z,101712.88
2023-09-06T20:11:55.961Z,101709.31
2023-09-06T20:14:24.550Z,101720.50
2023-09-06T20:16:51.348Z,101714.38
2023-09-06T20:19:17.870Z,101715.22
2023-09-06T20:21:44.443Z,101704.75
2023-09-06T20:24:11.105Z,101716.81
2023-09-06T20:26:38.131Z,101708.94
2023-09-06T20:29:09.410Z,101720.09
2023-09-06T20:31:36.514Z,101715.69
2023-09-06T20:34:03.222Z,101713.81
2023-09-06T20:36:29.819Z,101723.28
2023-09-06T20:38:56.371Z,101720.53
2023-09-06T20:41:22.980Z,101733.31
2023-09-06T20:43:49.536Z,101729.59
2023-09-06T20:46:16.145Z,101733.81
2023-09-06T20:48:46.592Z,101727.63
2023-09-06T20:51:14.875Z,101731.91
2023-09-06T20:53:44.078Z,101732.72
2023-09-06T20:56:11.275Z,101719.56
2023-09-06T20:58:38.692Z,101736.00
2023-09-06T21:01:22.304Z,101737.69
2023-09-06T21:03:49.304Z,101731.56
2023-09-06T21:06:16.034Z,101741.03
2023-09-06T21:08:43.055Z,101734.88
2023-09-06T21:11:09.847Z,101739.09
2023-09-06T21:13:36.458Z,101740.72
2023-09-06T21:16:03.449Z,101739.00
2023-09-06T21:18:31.115Z,101738.00
2023-09-06T21:20:58.401Z,101735.41
2023-09-06T21:23:25.312Z,101718.00
2023-09-06T21:25:51.923Z,101741.28
2023-09-06T21:28:18.507Z,101741.22
2023-09-06T21:30:47.028Z,101744.50
2023-09-06T21:33:14.654Z,101736.63
2023-09-06T21:35:43.017Z,101752.16
2023-09-06T21:38:09.715Z,101753.81
2023-09-06T21:40:44.320Z,101749.41
2023-09-06T21:43:18.433Z,101754.44
2023-09-06T21:45:45.376Z,101740.34
2023-09-06T21:48:12.529Z,101750.78
2023-09-06T21:50:41.728Z,101757.59
2023-09-06T21:53:08.538Z,101756.66
2023-09-06T21:55:35.249Z,101752.13
2023-09-06T21:58:09.577Z,101761.59
2023-09-06T22:00:37.517Z,101750.94
2023-09-06T22:03:04.628Z,101759.53
2023-09-06T22:05:31.367Z,101761.97
2023-09-06T22:07:58.042Z,101767.09
2023-09-06T22:10:24.797Z,101772.13
2023-09-06T22:12:51.906Z,101766.72
2023-09-06T22:15:18.851Z,101771.75
2023-09-06T22:17:45.668Z,101776.72
2023-09-06T22:20:12.537Z,101774.84
2023-09-06T22:22:39.330Z,101773.13
2023-09-06T22:25:06.949Z,101769.56
2023-09-06T22:27:34.201Z,101773.78
2023-09-06T22:30:01.266Z,101772.00
2023-09-06T22:32:28.440Z,101779.66
2023-09-06T22:34:56.959Z,101775.19
2023-09-06T22:37:24.726Z,101775.25
2023-09-06T22:39:51.662Z,101769.91
2023-09-06T22:42:18.505Z,101760.25
2023-09-06T22:44:46.128Z,101783.59
2023-09-06T22:47:13.030Z,101784.38
2023-09-06T22:49:39.947Z,101766.88
2023-09-06T22:52:07.894Z,101777.34
2023-09-06T22:54:39.716Z,101783.28
2023-09-06T22:57:12.486Z,101769.31
2023-09-06T22:59:39.219Z,101784.72
2023-09-06T23:02:05.962Z,101784.75
2023-09-06T23:04:33.525Z,101788.97
2023-09-06T23:07:01.089Z,101783.66
2023-09-06T23:09:28.025Z,101788.03
2023-09-06T23:11:57.326Z,101788.81
2023-09-06T23:14:27.400Z,101785.25
2023-09-06T23:16:54.637Z,101780.84
2023-09-06T23:19:27.892Z,101784.16
2023-09-06T23:21:59.437Z,101781.56
2023-09-06T23:24:28.709Z,101781.44
2023-09-06T23:27:00.125Z,101781.41
2023-09-06T23:29:35.738Z,101784.84
2023-09-06T23:32:05.833Z,101782.19
2023-09-06T23:34:35.374Z,101785.63
2023-09-06T23:37:05.418Z,101780.44
2023-09-06T23:39:34.339Z,101773.41
2023-09-06T23:42:10.616Z,101776.00
2023-09-06T23:44:41.935Z,101782.06
2023-09-06T23:47:08.817Z,101771.72
2023-09-06T23:49:37.196Z,101780.28
2023-09-06T23:52:04.449Z,101780.22
2023-09-06T23:54:44.732Z,101771.50
2023-09-06T23:57:13.791Z,101769.00
2023-09-06T23:59:40.486Z,101765.34
